createdAt,value
2017-04-05T00:00:46.654Z,12.38
2017-04-05T00:01:46.016Z,11.38
2017-04-05T00:02:45.303Z,11.73
2017-04-05T00:03:44.529Z,11.50
2017-04-05T00:04:43.869Z,11.72
2017-04-05T00:05:43.277Z,12.18
2017-04-05T00:06:42.538Z,11.53
2017-04-05T00:07:42.040Z,12.23
2017-04-05T00:08:42.032Z,10.92
2017-04-05T00:09:41.286Z,12.93
2017-04-05T00:10:40.500Z,12.43
2017-04-05T00:11:39.725Z,11.50
2017-04-05T00:12:39.716Z,12.27
2017-04-05T00:13:38.937Z,11.43
2017-04-05T00:14:38.187Z,12.53
2017-04-05T00:15:37.428Z,12.40
2017-04-05T00:16:36.786Z,12.65
2017-04-05T00:17:37.072Z,11.97
2017-04-05T00:18:36.304Z,10.52
2017-04-05T00:19:35.531Z,11.53
2017-04-05T00:20:34.743Z,12.88
2017-04-05T00:21:33.980Z,11.88
2017-04-05T00:22:33.210Z,11.85
2017-04-05T00:23:32.580Z,12.78
2017-04-05T00:24:31.848Z,11.60
2017-04-05T00:25:31.129Z,9.87
2017-04-05T00:26:31.125Z,11.40
2017-04-05T00:27:31.104Z,11.67
2017-04-05T00:28:30.421Z,12.25
2017-04-05T00:29:29.688Z,12.00
2017-04-05T00:30:29.331Z,11.05
2017-04-05T00:31:28.593Z,11.12
2017-04-05T00:32:28.600Z,11.87
2017-04-05T00:33:28.584Z,12.35
2017-04-05T00:34:27.873Z,10.47
2017-04-05T00:35:27.112Z,11.40
2017-04-05T00:36:26.412Z,11.47
2017-04-05T00:37:25.684Z,12.02
2017-04-05T00:38:25.745Z,10.03
2017-04-05T00:39:25.148Z,11.80
2017-04-05T00:40:24.354Z,11.80
2017-04-05T00:41:23.577Z,11.78
2017-04-05T00:42:22.865Z,10.73
2017-04-05T00:43:22.095Z,10.63
2017-04-05T00:44:21.333Z,11.28
2017-04-05T00:45:21.352Z,11.07
2017-04-05T00:46:20.634Z,10.92
2017-04-05T00:47:20.628Z,12.53
2017-04-05T00:48:20.596Z,11.45
2017-04-05T00:49:19.837Z,12.22
2017-04-05T00:50:20.205Z,9.82
2017-04-05T00:51:19.433Z,11.25
2017-04-05T00:52:19.396Z,11.37
2017-04-05T00:53:18.597Z,9.15
2017-04-05T00:54:17.833Z,9.90
2017-04-05T00:55:17.070Z,10.07
2017-04-05T00:56:16.325Z,9.05
2017-04-05T00:57:15.612Z,12.37
2017-04-05T00:58:14.876Z,11.10
2017-04-05T00:59:14.872Z,8.70
2017-04-05T01:00:14.139Z,10.60
2017-04-05T01:01:13.480Z,12.03
2017-04-05T01:02:12.852Z,9.52
2017-04-05T01:03:12.849Z,12.13
2017-04-05T01:04:12.505Z,11.57
2017-04-05T01:05:11.763Z,9.50
2017-04-05T01:06:10.992Z,10.97
2017-04-05T01:07:10.241Z,10.02
2017-04-05T01:08:09.510Z,10.28
2017-04-05T01:09:09.737Z,11.95
2017-04-05T01:10:09.710Z,10.23
2017-04-05T01:11:09.709Z,10.72
2017-04-05T01:12:08.989Z,10.60
2017-04-05T01:13:08.351Z,9.83
2017-04-05T01:14:07.576Z,11.28
2017-04-05T01:15:06.906Z,11.78
2017-04-05T01:16:06.968Z,9.72
2017-04-05T01:17:06.266Z,11.68
2017-04-05T01:18:06.382Z,9.98
2017-04-05T01:19:05.604Z,10.05
2017-04-05T01:20:05.636Z,9.88
2017-04-05T01:21:04.896Z,8.85
2017-04-05T01:22:04.131Z,10.57
2017-04-05T01:23:03.445Z,9.43
2017-04-05T01:24:02.673Z,10.10
2017-04-05T01:25:02.787Z,11.33
2017-04-05T01:26:02.757Z,10.47
2017-04-05T01:27:02.068Z,10.00
2017-04-05T01:28:01.310Z,10.20
2017-04-05T01:29:00.591Z,9.47
2017-04-05T01:29:59.853Z,9.92
2017-04-05T01:30:59.885Z,10.52
2017-04-05T01:31:59.104Z,10.62
2017-04-05T01:32:58.332Z,9.57
2017-04-05T01:33:58.624Z,9.55
2017-04-05T01:34:57.837Z,9.88
2017-04-05T01:35:57.803Z,9.80
2017-04-05T01:36:57.124Z,10.37
2017-04-05T01:37:56.373Z,10.25
2017-04-05T01:38:55.588Z,9.97
2017-04-05T01:39:54.865Z,10.72
2017-04-05T01:40:54.084Z,10.98
2017-04-05T01:41:54.064Z,11.53
2017-04-05T01:42:53.301Z,10.05
2017-04-05T01:43:53.301Z,12.72
2017-04-05T01:44:53.308Z,10.52
2017-04-05T01:45:53.328Z,9.25
2017-04-05T01:46:53.313Z,13.77
2017-04-05T01:47:53.281Z,10.37
2017-04-05T01:48:52.550Z,11.77
2017-04-05T01:49:51.805Z,11.17
2017-04-05T01:50:51.801Z,12.10
2017-04-05T01:51:51.073Z,10.83
2017-04-05T01:52:50.308Z,10.73
2017-04-05T01:53:50.297Z,11.58
2017-04-05T01:54:50.285Z,9.58
2017-04-05T01:55:49.620Z,11.37
2017-04-05T01:56:48.900Z,10.57
2017-04-05T01:57:48.879Z,10.80
2017-04-05T01:58:48.162Z,10.52
2017-04-05T01:59:47.452Z,9.52
2017-04-05T02:00:46.703Z,9.55
2017-04-05T02:01:45.972Z,12.25
2017-04-05T02:02:45.197Z,10.85
2017-04-05T02:03:44.435Z,11.08
2017-04-05T02:04:44.584Z,10.18
2017-04-05T02:05:43.820Z,11.33
2017-04-05T02:06:43.824Z,12.95
2017-04-05T02:07:43.077Z,13.38
2017-04-05T02:08:42.409Z,10.62
2017-04-05T02:09:41.672Z,11.07
2017-04-05T02:10:40.910Z,11.45
2017-04-05T02:11:40.892Z,12.15
2017-04-05T02:12:40.132Z,11.13
2017-04-05T02:13:39.372Z,12.07
2017-04-05T02:14:38.597Z,12.47
2017-04-05T02:15:37.816Z,10.98
2017-04-05T02:16:37.035Z,10.85
2017-04-05T02:17:36.295Z,10.33
2017-04-05T02:18:35.567Z,11.05
2017-04-05T02:19:34.849Z,13.18
2017-04-05T02:20:34.121Z,12.10
2017-04-05T02:21:34.088Z,9.78
2017-04-05T02:22:33.316Z,10.92
2017-04-05T02:23:32.540Z,11.13
2017-04-05T02:24:31.817Z,11.82
2017-04-05T02:25:31.065Z,10.45
2017-04-05T02:26:30.293Z,12.30
2017-04-05T02:27:29.520Z,10.68
2017-04-05T02:28:28.776Z,11.28
2017-04-05T02:29:28.056Z,10.93
2017-04-05T02:30:27.532Z,11.03
2017-04-05T02:31:27.500Z,10.98
2017-04-05T02:32:26.736Z,10.23
2017-04-05T02:33:26.776Z,11.03
2017-04-05T02:34:26.019Z,10.35
2017-04-05T02:35:26.003Z,10.85
2017-04-05T02:36:25.292Z,10.55
2017-04-05T02:37:24.585Z,12.55
2017-04-05T02:38:23.824Z,11.92
2017-04-05T02:39:23.048Z,12.78
2017-04-05T02:40:22.269Z,10.03
2017-04-05T02:41:21.490Z,9.83
2017-04-05T02:42:20.753Z,12.65
2017-04-05T02:43:20.719Z,11.90
2017-04-05T02:44:19.953Z,11.72
2017-04-05T02:45:20.007Z,10.85
2017-04-05T02:46:19.321Z,13.25
2017-04-05T02:47:18.771Z,13.57
2017-04-05T02:48:17.995Z,12.37
2017-04-05T02:49:17.232Z,11.57
2017-04-05T02:50:17.216Z,12.18
2017-04-05T02:51:16.464Z,10.62
2017-04-05T02:52:15.719Z,10.82
2017-04-05T02:53:15.700Z,12.25
2017-04-05T02:54:15.158Z,11.25
2017-04-05T02:55:14.425Z,10.68
2017-04-05T02:56:13.641Z,13.12
2017-04-05T02:57:12.930Z,12.12
2017-04-05T02:58:12.452Z,10.00
2017-04-05T02:59:11.698Z,12.90
2017-04-05T03:00:10.956Z,13.05
2017-04-05T03:01:10.245Z,13.25
2017-04-05T03:02:10.224Z,14.18
2017-04-05T03:03:09.468Z,12.08
2017-04-05T03:04:08.727Z,12.13
2017-04-05T03:05:07.981Z,12.80
2017-04-05T03:06:07.297Z,12.08
2017-04-05T03:07:06.527Z,12.02
2017-04-05T03:08:05.766Z,12.02
2017-04-05T03:09:05.236Z,10.88
2017-04-05T03:10:04.593Z,11.53
2017-04-05T03:11:04.577Z,11.85
2017-04-05T03:12:03.832Z,12.18
2017-04-05T03:13:03.069Z,12.53
2017-04-05T03:14:02.404Z,12.52
2017-04-05T03:15:01.685Z,11.40
2017-04-05T03:16:00.934Z,12.45
2017-04-05T03:17:00.922Z,12.12
2017-04-05T03:18:00.248Z,11.45
2017-04-05T03:19:00.245Z,11.83
2017-04-05T03:20:00.269Z,11.20
2017-04-05T03:21:00.260Z,11.33
2017-04-05T03:22:00.339Z,12.60
2017-04-05T03:22:59.609Z,12.83
2017-04-05T03:23:58.845Z,12.35
2017-04-05T03:24:58.822Z,11.48
2017-04-05T03:25:58.093Z,10.78
2017-04-05T03:26:57.325Z,13.65
2017-04-05T03:27:56.591Z,15.00
2017-04-05T03:28:55.916Z,12.27
2017-04-05T03:29:55.191Z,12.53
2017-04-05T03:30:54.469Z,11.72
2017-04-05T03:31:54.001Z,11.10
2017-04-05T03:32:53.982Z,13.18
2017-04-05T03:33:53.244Z,11.82
2017-04-05T03:34:52.483Z,12.87
2017-04-05T03:35:52.460Z,10.80
2017-04-05T03:36:51.764Z,13.13
2017-04-05T03:37:51.043Z,11.52
2017-04-05T03:38:50.257Z,14.27
2017-04-05T03:39:50.248Z,12.90
2017-04-05T03:40:49.451Z,11.87
2017-04-05T03:41:49.430Z,12.07
2017-04-05T03:42:48.668Z,12.75
2017-04-05T03:43:47.956Z,12.95
2017-04-05T03:44:47.261Z,10.88
2017-04-05T03:45:46.512Z,17.05
2017-04-05T03:46:46.561Z,15.58
2017-04-05T03:47:45.867Z,13.57
2017-04-05T03:48:45.140Z,12.22
2017-04-05T03:49:44.681Z,12.02
2017-04-05T03:50:43.969Z,13.75
2017-04-05T03:51:43.213Z,13.25
2017-04-05T03:52:42.469Z,12.95
2017-04-05T03:53:42.441Z,12.13
2017-04-05T03:54:41.676Z,13.33
2017-04-05T03:55:41.689Z,15.57
2017-04-05T03:56:41.661Z,12.05
2017-04-05T03:57:40.884Z,14.07
2017-04-05T03:58:40.840Z,12.40
2017-04-05T03:59:40.078Z,13.08
2017-04-05T04:00:40.044Z,13.40
2017-04-05T04:01:39.295Z,12.27
2017-04-05T04:02:38.523Z,13.88
2017-04-05T04:03:37.868Z,12.73
2017-04-05T04:04:37.100Z,12.88
2017-04-05T04:05:37.372Z,13.00
2017-04-05T04:06:36.629Z,12.45
2017-04-05T04:07:36.926Z,12.52
2017-04-05T04:08:36.280Z,10.83
2017-04-05T04:09:35.525Z,12.48
2017-04-05T04:10:35.512Z,13.43
2017-04-05T04:11:34.750Z,12.48
2017-04-05T04:12:33.990Z,16.12
2017-04-05T04:13:33.501Z,11.67
2017-04-05T04:14:32.782Z,13.47
2017-04-05T04:15:32.057Z,12.82
2017-04-05T04:16:31.294Z,13.25
2017-04-05T04:17:30.525Z,13.48
2017-04-05T04:18:29.851Z,12.27
2017-04-05T04:19:29.172Z,13.40
2017-04-05T04:20:28.472Z,12.18
2017-04-05T04:21:27.702Z,13.32
2017-04-05T04:22:27.117Z,11.83
2017-04-05T04:23:26.360Z,13.40
2017-04-05T04:24:25.637Z,11.67
2017-04-05T04:25:24.888Z,11.87
2017-04-05T04:26:24.119Z,11.75
2017-04-05T04:27:23.387Z,12.50
2017-04-05T04:28:23.351Z,12.28
2017-04-05T04:29:22.604Z,12.48
2017-04-05T04:30:21.828Z,13.65
2017-04-05T04:31:21.116Z,11.30
2017-04-05T04:32:20.415Z,13.50
2017-04-05T04:33:19.665Z,12.77
2017-04-05T04:34:18.906Z,12.58
2017-04-05T04:35:18.180Z,12.22
2017-04-05T04:36:17.416Z,12.12
2017-04-05T04:37:17.452Z,13.57
2017-04-05T04:38:16.697Z,11.65
2017-04-05T04:39:16.721Z,13.75
2017-04-05T04:40:16.758Z,12.38
2017-04-05T04:41:15.991Z,11.37
2017-04-05T04:42:15.209Z,13.35
2017-04-05T04:43:15.248Z,13.75
2017-04-05T04:44:14.512Z,12.25
2017-04-05T04:45:13.797Z,11.92
2017-04-05T04:46:13.793Z,13.80
2017-04-05T04:47:13.304Z,11.62
2017-04-05T04:48:12.583Z,13.57
2017-04-05T04:49:12.589Z,12.17
2017-04-05T04:50:12.577Z,16.02
2017-04-05T04:51:11.855Z,13.73
2017-04-05T04:52:11.137Z,13.80
2017-04-05T04:53:10.368Z,13.28
2017-04-05T04:54:10.332Z,12.27
2017-04-05T04:55:09.604Z,12.80
2017-04-05T04:56:08.896Z,13.92
2017-04-05T04:57:08.145Z,12.82
2017-04-05T04:58:08.108Z,12.93
2017-04-05T04:59:07.325Z,13.18
2017-04-05T05:00:06.564Z,13.60
2017-04-05T05:01:05.842Z,12.30
2017-04-05T05:02:05.112Z,12.63
2017-04-05T05:03:05.085Z,15.13
2017-04-05T05:04:04.322Z,14.77
2017-04-05T05:05:03.617Z,13.68
2017-04-05T05:06:02.854Z,13.90
2017-04-05T05:07:02.113Z,12.85
2017-04-05T05:08:01.312Z,17.20
2017-04-05T05:09:00.541Z,12.43
2017-04-05T05:09:59.756Z,14.62
2017-04-05T05:10:58.976Z,13.62
2017-04-05T05:11:58.221Z,13.17
2017-04-05T05:12:58.246Z,12.97
2017-04-05T05:13:57.484Z,12.27
2017-04-05T05:14:56.700Z,11.72
2017-04-05T05:15:56.685Z,12.72
2017-04-05T05:16:55.921Z,14.70
2017-04-05T05:17:55.160Z,14.15
2017-04-05T05:18:54.433Z,14.43
2017-04-05T05:19:53.653Z,13.95
2017-04-05T05:20:52.868Z,15.23
2017-04-05T05:21:52.844Z,12.93
2017-04-05T05:22:52.082Z,20.72
2017-04-05T05:23:51.317Z,13.90
2017-04-05T05:24:50.809Z,13.27
2017-04-05T05:25:50.052Z,14.50
2017-04-05T05:26:49.277Z,18.10
2017-04-05T05:27:48.508Z,19.57
2017-04-05T05:28:48.511Z,12.87
2017-04-05T05:29:48.482Z,14.58
2017-04-05T05:30:47.737Z,14.80
2017-04-05T05:31:46.974Z,13.52
2017-04-05T05:32:46.208Z,15.68
2017-04-05T05:33:45.445Z,14.57
2017-04-05T05:34:44.721Z,14.08
2017-04-05T05:35:43.994Z,12.65
2017-04-05T05:36:43.521Z,13.52
2017-04-05T05:37:42.831Z,12.55
2017-04-05T05:38:42.816Z,13.58
2017-04-05T05:39:42.085Z,13.60
2017-04-05T05:40:41.294Z,12.97
2017-04-05T05:41:40.548Z,11.98
2017-04-05T05:42:39.815Z,14.40
2017-04-05T05:43:39.077Z,13.58
2017-04-05T05:44:38.340Z,20.10
2017-04-05T05:45:37.585Z,14.47
2017-04-05T05:46:37.561Z,15.02
2017-04-05T05:47:36.804Z,13.63
2017-04-05T05:48:36.056Z,12.78
2017-04-05T05:49:36.040Z,19.00
2017-04-05T05:50:35.277Z,16.32
2017-04-05T05:51:34.504Z,12.30
2017-04-05T05:52:33.744Z,14.85
2017-04-05T05:53:33.716Z,14.90
2017-04-05T05:54:33.005Z,14.80
2017-04-05T05:55:32.319Z,13.93
2017-04-05T05:56:32.291Z,15.57
2017-04-05T05:57:31.525Z,13.13
2017-04-05T05:58:31.530Z,13.48
2017-04-05T05:59:31.517Z,14.07
2017-04-05T06:00:30.901Z,16.67
2017-04-05T06:01:30.155Z,15.07
2017-04-05T06:02:29.395Z,13.00
2017-04-05T06:03:28.613Z,17.27
2017-04-05T06:04:27.856Z,13.37
2017-04-05T06:05:27.094Z,16.07
2017-04-05T06:06:26.591Z,13.77
2017-04-05T06:07:25.825Z,13.42
2017-04-05T06:08:25.053Z,15.83
2017-04-05T06:09:25.061Z,14.47
2017-04-05T06:10:25.096Z,17.30
2017-04-05T06:11:24.376Z,14.98
2017-04-05T06:12:23.664Z,18.65
2017-04-05T06:13:22.925Z,14.12
2017-04-05T06:14:22.213Z,14.07
2017-04-05T06:15:21.458Z,17.50
2017-04-05T06:16:20.681Z,17.17
2017-04-05T06:17:19.920Z,13.83
2017-04-05T06:18:22.097Z,13.82
2017-04-05T06:19:21.325Z,14.35
2017-04-05T06:20:20.576Z,13.98
2017-04-05T06:21:19.821Z,13.28
2017-04-05T06:22:19.092Z,14.05
2017-04-05T06:23:18.335Z,14.80
2017-04-05T06:24:17.641Z,14.93
2017-04-05T06:25:16.889Z,15.00
2017-04-05T06:26:16.885Z,14.20
2017-04-05T06:27:16.892Z,15.25
2017-04-05T06:28:16.861Z,13.18
2017-04-05T06:29:16.168Z,14.30
2017-04-05T06:30:15.762Z,14.55
2017-04-05T06:31:15.104Z,14.55
2017-04-05T06:32:14.365Z,13.42
2017-04-05T06:33:14.337Z,14.60
2017-04-05T06:34:14.327Z,14.18
2017-04-05T06:35:13.571Z,15.10
2017-04-05T06:36:13.561Z,13.63
2017-04-05T06:37:12.802Z,14.07
2017-04-05T06:38:12.049Z,14.25
2017-04-05T06:39:11.265Z,14.65
2017-04-05T06:40:10.561Z,13.33
2017-04-05T06:41:09.785Z,14.28
2017-04-05T06:42:09.040Z,15.80
2017-04-05T06:43:08.277Z,15.68
2017-04-05T06:44:07.492Z,13.48
2017-04-05T06:45:07.508Z,12.70
2017-04-05T06:46:07.478Z,14.65
2017-04-05T06:47:06.729Z,15.42
2017-04-05T06:48:06.012Z,13.32
2017-04-05T06:49:05.230Z,12.80
2017-04-05T06:50:04.521Z,13.82
2017-04-05T06:51:03.752Z,15.48
2017-04-05T06:52:03.735Z,16.48
2017-04-05T06:53:02.970Z,16.27
2017-04-05T06:54:03.211Z,14.15
2017-04-05T06:55:02.421Z,15.15
2017-04-05T06:56:01.647Z,14.40
2017-04-05T06:57:01.617Z,16.53
2017-04-05T06:58:00.849Z,13.90
2017-04-05T06:59:00.813Z,13.72
2017-04-05T07:00:00.317Z,15.12
2017-04-05T07:00:59.528Z,15.35
2017-04-05T07:01:59.514Z,16.57
2017-04-05T07:03:07.501Z,12.52
2017-04-05T07:04:08.305Z,13.68
2017-04-05T07:05:08.754Z,13.70
2017-04-05T07:06:08.453Z,13.28
2017-04-05T07:07:08.141Z,14.53
2017-04-05T07:08:07.373Z,13.23
2017-04-05T07:09:07.756Z,13.45
2017-04-05T07:10:06.992Z,13.02
2017-04-05T07:11:06.521Z,13.40
2017-04-05T07:12:05.815Z,13.28
2017-04-05T07:13:05.116Z,12.45
2017-04-05T07:14:05.439Z,13.13
2017-04-05T07:15:04.911Z,13.15
2017-04-05T07:16:04.286Z,12.93
2017-04-05T07:17:03.716Z,11.88
2017-04-05T07:18:03.055Z,13.82
2017-04-05T07:19:02.384Z,13.53
2017-04-05T07:20:02.863Z,13.95
2017-04-05T07:21:02.093Z,14.23
2017-04-05T07:22:01.333Z,13.48
2017-04-05T07:23:01.674Z,14.92
2017-04-05T07:24:00.937Z,14.07
2017-04-05T07:25:00.929Z,14.35
2017-04-05T07:26:00.200Z,13.10
2017-04-05T07:26:59.462Z,15.27
2017-04-05T07:27:58.734Z,13.83
2017-04-05T07:28:58.107Z,14.57
2017-04-05T07:29:58.072Z,13.90
2017-04-05T07:30:57.292Z,16.20
2017-04-05T07:31:56.533Z,14.65
2017-04-05T07:32:55.763Z,14.10
2017-04-05T07:33:54.989Z,14.70
2017-04-05T07:34:54.272Z,13.77
2017-04-05T07:35:53.475Z,14.32
2017-04-05T07:36:52.716Z,14.05
2017-04-05T07:37:51.972Z,13.15
2017-04-05T07:38:51.258Z,14.02
2017-04-05T07:39:50.489Z,14.12
2017-04-05T07:40:49.767Z,13.82
2017-04-05T07:41:48.988Z,13.43
2017-04-05T07:42:48.938Z,14.50
2017-04-05T07:43:48.909Z,13.47
2017-04-05T07:44:48.865Z,13.63
2017-04-05T07:45:48.097Z,13.78
2017-04-05T07:46:47.668Z,13.48
2017-04-05T07:47:46.913Z,14.73
2017-04-05T07:48:46.144Z,14.97
2017-04-05T07:49:45.404Z,14.75
2017-04-05T07:50:44.676Z,17.40
2017-04-05T07:51:43.886Z,15.15
2017-04-05T07:52:43.153Z,15.53
2017-04-05T07:53:42.479Z,15.80
2017-04-05T07:54:41.690Z,17.38
2017-04-05T07:55:40.922Z,17.35
2017-04-05T07:56:40.145Z,15.83
2017-04-05T07:57:39.365Z,15.47
2017-04-05T07:58:39.665Z,18.73
2017-04-05T07:59:38.897Z,18.97
2017-04-05T08:00:38.153Z,18.47
2017-04-05T08:01:37.361Z,17.98
2017-04-05T08:02:37.360Z,18.92
2017-04-05T08:03:37.334Z,17.88
2017-04-05T08:04:36.592Z,18.97
2017-04-05T08:05:35.837Z,16.65
2017-04-05T08:06:35.817Z,15.82
2017-04-05T08:07:35.045Z,16.75
2017-04-05T08:08:35.229Z,16.55
2017-04-05T08:09:34.484Z,17.75
2017-04-05T08:10:34.013Z,17.52
2017-04-05T08:11:33.233Z,17.00
2017-04-05T08:12:33.250Z,15.73
2017-04-05T08:13:33.247Z,18.63
2017-04-05T08:14:33.221Z,15.75
2017-04-05T08:15:32.460Z,16.47
2017-04-05T08:16:31.716Z,15.38
2017-04-05T08:17:30.933Z,14.83
2017-04-05T08:18:30.923Z,15.45
2017-04-05T08:19:30.906Z,16.55
2017-04-05T08:20:30.186Z,14.73
2017-04-05T08:21:29.536Z,16.42
2017-04-05T08:22:29.018Z,16.60
2017-04-05T08:23:28.976Z,19.08
2017-04-05T08:24:28.755Z,17.45
2017-04-05T08:25:27.977Z,17.02
2017-04-05T08:26:27.205Z,16.45
2017-04-05T08:27:27.205Z,15.47
2017-04-05T08:28:27.205Z,15.72
2017-04-05T08:29:27.196Z,15.42
2017-04-05T08:30:26.457Z,15.73
2017-04-05T08:31:25.708Z,13.90
2017-04-05T08:32:25.972Z,16.75
2017-04-05T08:33:25.256Z,13.57
2017-04-05T08:34:24.778Z,17.55
2017-04-05T08:35:24.041Z,14.80
2017-04-05T08:36:23.351Z,14.15
2017-04-05T08:37:22.843Z,16.27
2017-04-05T08:38:22.119Z,12.87
2017-04-05T08:39:21.373Z,14.02
2017-04-05T08:40:20.665Z,13.13
2017-04-05T08:41:19.941Z,14.35
2017-04-05T08:42:19.924Z,13.65
2017-04-05T08:43:19.161Z,13.73
2017-04-05T08:44:18.397Z,15.03
2017-04-05T08:45:17.713Z,13.63
2017-04-05T08:46:17.925Z,14.18
2017-04-05T08:47:17.949Z,12.95
2017-04-05T08:48:17.930Z,13.35
2017-04-05T08:49:18.033Z,13.35
2017-04-05T08:50:17.281Z,13.52
2017-04-05T08:51:16.527Z,13.67
2017-04-05T08:52:16.614Z,12.83
2017-04-05T08:53:15.908Z,13.13
2017-04-05T08:54:15.178Z,14.52
2017-04-05T08:55:14.448Z,12.47
2017-04-05T08:56:13.753Z,12.10
2017-04-05T08:57:13.774Z,15.18
2017-04-05T08:58:13.048Z,13.92
2017-04-05T08:59:12.294Z,12.95
2017-04-05T09:00:12.333Z,14.37
2017-04-05T09:01:11.551Z,12.85
2017-04-05T09:02:10.933Z,14.53
2017-04-05T09:03:10.165Z,15.05
2017-04-05T09:04:10.454Z,12.42
2017-04-05T09:05:09.728Z,14.33
2017-04-05T09:06:08.975Z,13.92
2017-04-05T09:07:08.221Z,14.00
2017-04-05T09:08:07.494Z,14.70
2017-04-05T09:09:06.761Z,13.48
2017-04-05T09:10:06.053Z,12.93
2017-04-05T09:11:05.309Z,15.00
2017-04-05T09:12:05.315Z,12.10
2017-04-05T09:13:05.311Z,10.98
2017-04-05T09:14:04.561Z,11.78
2017-04-05T09:15:03.797Z,12.58
2017-04-05T09:16:03.813Z,11.07
2017-04-05T09:17:03.829Z,12.92
2017-04-05T09:18:03.797Z,13.27
2017-04-05T09:19:03.050Z,11.97
2017-04-05T09:20:02.273Z,13.48
2017-04-05T09:21:01.533Z,13.07
2017-04-05T09:22:00.858Z,14.35
2017-04-05T09:23:00.097Z,13.42
2017-04-05T09:23:59.331Z,14.83
2017-04-05T09:24:58.573Z,12.72
2017-04-05T09:25:57.837Z,11.42
2017-04-05T09:26:57.058Z,13.12
2017-04-05T09:27:56.557Z,10.95
2017-04-05T09:28:55.814Z,14.87
2017-04-05T09:29:55.764Z,12.85
2017-04-05T09:30:55.001Z,13.00
2017-04-05T09:31:54.240Z,11.30
2017-04-05T09:32:53.460Z,12.73
2017-04-05T09:33:52.757Z,12.58
2017-04-05T09:34:52.005Z,11.85
2017-04-05T09:35:51.577Z,12.10
2017-04-05T09:36:51.554Z,12.73
2017-04-05T09:37:50.829Z,11.70
2017-04-05T09:38:50.850Z,11.28
2017-04-05T09:39:50.128Z,12.57
2017-04-05T09:40:49.378Z,11.38
2017-04-05T09:41:48.625Z,11.43
2017-04-05T09:42:47.857Z,11.45
2017-04-05T09:43:47.092Z,11.82
2017-04-05T09:44:46.351Z,11.63
2017-04-05T09:45:45.984Z,14.22
2017-04-05T09:46:45.201Z,12.13
2017-04-05T09:47:45.148Z,13.72
2017-04-05T09:48:44.404Z,12.97
2017-04-05T09:49:43.668Z,12.53
2017-04-05T09:50:42.888Z,12.02
2017-04-05T09:51:42.224Z,12.40
2017-04-05T09:52:41.445Z,11.80
2017-04-05T09:53:41.416Z,12.55
2017-04-05T09:54:40.643Z,11.92
2017-04-05T09:55:40.609Z,10.67
2017-04-05T09:56:39.826Z,12.22
2017-04-05T09:57:39.292Z,12.32
2017-04-05T09:58:38.773Z,11.40
2017-04-05T09:59:38.578Z,10.93
2017-04-05T10:00:37.884Z,11.27
2017-04-05T10:01:37.139Z,12.38
2017-04-05T10:02:37.000Z,10.53
2017-04-05T10:03:36.268Z,10.53
2017-04-05T10:04:35.502Z,10.10
2017-04-05T10:05:35.461Z,11.02
2017-04-05T10:06:34.677Z,11.13
2017-04-05T10:07:33.947Z,13.37
2017-04-05T10:08:33.431Z,11.05
2017-04-05T10:09:32.711Z,10.78
2017-04-05T10:10:31.978Z,12.00
2017-04-05T10:11:31.979Z,10.07
2017-04-05T10:12:31.980Z,11.98
2017-04-05T10:13:31.947Z,11.02
2017-04-05T10:14:31.193Z,9.85
2017-04-05T10:15:30.456Z,10.50
2017-04-05T10:16:29.681Z,13.25
2017-04-05T10:17:28.988Z,9.82
2017-04-05T10:18:28.244Z,10.80
2017-04-05T10:19:28.284Z,10.53
2017-04-05T10:20:27.598Z,11.58
2017-04-05T10:21:26.829Z,9.70
2017-04-05T10:22:26.144Z,9.90
2017-04-05T10:23:25.385Z,9.50
2017-04-05T10:24:24.614Z,9.45
2017-04-05T10:25:24.089Z,10.73
2017-04-05T10:26:24.048Z,9.68
2017-04-05T10:27:23.330Z,11.45
2017-04-05T10:28:22.551Z,10.62
2017-04-05T10:29:22.529Z,10.33
2017-04-05T10:30:21.819Z,9.18
2017-04-05T10:31:21.080Z,9.47
2017-04-05T10:32:20.305Z,9.08
2017-04-05T10:33:19.647Z,9.83
2017-04-05T10:34:18.997Z,8.45
2017-04-05T10:35:18.253Z,7.68
2017-04-05T10:36:17.514Z,9.27
2017-04-05T10:37:17.621Z,9.43
2017-04-05T10:38:17.597Z,8.02
2017-04-05T10:39:16.869Z,8.67
2017-04-05T10:40:16.149Z,7.93
2017-04-05T10:41:15.401Z,9.20
2017-04-05T10:42:15.417Z,9.28
2017-04-05T10:43:14.697Z,10.20
2017-04-05T10:44:14.657Z,8.95
2017-04-05T10:45:13.924Z,10.80
2017-04-05T10:46:13.189Z,9.88
2017-04-05T10:47:13.164Z,8.62
2017-04-05T10:48:12.385Z,9.38
2017-04-05T10:49:12.363Z,9.13
2017-04-05T10:50:11.629Z,9.92
2017-04-05T10:51:10.877Z,13.30
2017-04-05T10:52:10.890Z,9.87
2017-04-05T10:53:10.141Z,10.05
2017-04-05T10:54:09.373Z,10.35
2017-04-05T10:55:08.610Z,9.65
2017-04-05T10:56:07.820Z,8.97
2017-04-05T10:57:07.091Z,9.70
2017-04-05T10:58:06.583Z,9.23
2017-04-05T10:59:05.797Z,9.60
2017-04-05T11:00:05.783Z,11.18
2017-04-05T11:01:05.058Z,9.80
2017-04-05T11:02:04.308Z,8.63
2017-04-05T11:03:02.780Z,9.47
2017-04-05T11:04:02.042Z,9.60
2017-04-05T11:05:02.129Z,9.47
2017-04-05T11:06:01.364Z,7.58
2017-04-05T11:07:00.657Z,7.92
2017-04-05T11:08:00.637Z,9.15
2017-04-05T11:08:59.899Z,8.58
2017-04-05T11:09:59.148Z,8.00
2017-04-05T11:10:58.377Z,8.58
2017-04-05T11:11:57.633Z,8.55
2017-04-05T11:12:56.845Z,9.12
2017-04-05T11:13:56.055Z,9.65
2017-04-05T11:14:55.284Z,8.12
2017-04-05T11:15:55.251Z,9.52
2017-04-05T11:16:54.464Z,9.22
2017-04-05T11:17:54.424Z,11.52
2017-04-05T11:18:53.645Z,7.67
2017-04-05T11:19:52.904Z,11.17
2017-04-05T11:20:52.169Z,8.82
2017-04-05T11:21:51.410Z,8.48
2017-04-05T11:22:50.633Z,9.15
2017-04-05T11:23:50.576Z,7.83
2017-04-05T11:24:49.796Z,9.35
2017-04-05T11:25:49.057Z,9.62
2017-04-05T11:26:48.288Z,9.63
2017-04-05T11:27:47.772Z,8.67
2017-04-05T11:28:46.996Z,10.90
2017-04-05T11:29:46.972Z,8.83
2017-04-05T11:30:46.572Z,9.05
2017-04-05T11:31:45.804Z,9.10
2017-04-05T11:32:45.101Z,8.07
2017-04-05T11:33:44.333Z,9.73
2017-04-05T11:34:43.568Z,8.37
2017-04-05T11:35:42.869Z,8.67
2017-04-05T11:36:42.110Z,8.00
2017-04-05T11:37:41.318Z,9.62
2017-04-05T11:38:40.549Z,8.65
2017-04-05T11:39:39.775Z,8.02
2017-04-05T11:40:39.026Z,9.22
2017-04-05T11:41:38.545Z,9.40
2017-04-05T11:42:37.783Z,9.87
2017-04-05T11:43:37.772Z,10.73
2017-04-05T11:44:37.745Z,9.55
2017-04-05T11:45:36.953Z,8.77
2017-04-05T11:46:36.172Z,10.65
2017-04-05T11:47:36.289Z,9.50
2017-04-05T11:48:35.571Z,10.80
2017-04-05T11:49:34.821Z,11.55
2017-04-05T11:50:34.073Z,10.22
2017-04-05T11:51:33.300Z,10.47
2017-04-05T11:52:32.714Z,9.88
2017-04-05T11:53:32.688Z,11.57
2017-04-05T11:54:32.143Z,9.55
2017-04-05T11:55:31.548Z,8.63
2017-04-05T11:56:31.009Z,9.30
2017-04-05T11:57:31.207Z,8.13
2017-04-05T11:58:31.468Z,9.15
2017-04-05T11:59:30.796Z,8.40
2017-04-05T12:00:30.229Z,9.12
2017-04-05T12:01:30.404Z,10.13
2017-04-05T12:02:29.786Z,9.08
2017-04-05T12:03:29.391Z,9.33
2017-04-05T12:04:28.605Z,9.28
2017-04-05T12:05:28.562Z,8.97
2017-04-05T12:06:27.785Z,9.47
2017-04-05T12:07:27.241Z,9.82
2017-04-05T12:08:26.617Z,10.05
2017-04-05T12:09:26.108Z,9.87
2017-04-05T12:10:25.645Z,10.88
2017-04-05T12:11:25.284Z,9.28
2017-04-05T12:12:25.240Z,10.50
2017-04-05T12:13:25.044Z,9.37
2017-04-05T12:14:24.304Z,10.35
2017-04-05T12:15:23.542Z,9.23
2017-04-05T12:16:23.042Z,10.30
2017-04-05T12:17:22.257Z,9.65
2017-04-05T12:18:22.220Z,10.00
2017-04-05T12:19:21.451Z,10.73
2017-04-05T12:20:21.736Z,10.10
2017-04-05T12:21:20.976Z,10.37
2017-04-05T12:22:20.208Z,9.08
2017-04-05T12:23:19.432Z,10.20
2017-04-05T12:24:19.397Z,10.22
2017-04-05T12:25:18.680Z,10.23
2017-04-05T12:26:17.965Z,11.80
2017-04-05T12:27:17.232Z,9.83
2017-04-05T12:28:16.484Z,11.32
2017-04-05T12:29:15.728Z,10.02
2017-04-05T12:30:14.973Z,10.25
2017-04-05T12:31:15.018Z,10.08
2017-04-05T12:32:14.556Z,9.60
2017-04-05T12:33:13.785Z,10.47
2017-04-05T12:34:13.764Z,10.40
2017-04-05T12:35:12.993Z,10.27
2017-04-05T12:36:12.224Z,9.97
2017-04-05T12:37:11.472Z,9.48
2017-04-05T12:38:11.017Z,9.15
2017-04-05T12:39:10.255Z,9.93
2017-04-05T12:40:09.457Z,9.97
2017-04-05T12:41:08.696Z,10.12
2017-04-05T12:42:07.961Z,10.45
2017-04-05T12:45:04.817Z,9.90
2017-04-05T12:46:04.061Z,9.70
2017-04-05T12:47:03.326Z,9.37
2017-04-05T12:48:03.306Z,10.90
2017-04-05T12:49:02.544Z,10.75
2017-04-05T12:50:01.797Z,10.43
2017-04-05T12:51:01.035Z,10.67
2017-04-05T12:52:00.265Z,10.25